Time;durP1;ratioP1;P1;durP2;ratioP2;P2;SDS_P1;SDS_P2;PMS_P1;PMS_P2;Temp;Humidity;BMP_temperature;BMP_pressure;BME280_temperature;BME280_humidity;BME280_pressure;Samples;Min_cycle;Max_cycle;Signal;HPM_P1;HPM_P2
2021/05/15 00:00:29;;;;;;;4.30;1.30;;;;;;;9.46;96.33;95426.50;1053582;28;20082;-50
2021/05/15 00:00:59;;;;;;;3.95;1.27;;;;;;;9.48;95.79;95437.59;1053411;28;20016;-52
2021/05/15 00:01:30;;;;;;;4.37;1.40;;;;;;;9.50;96.13;95426.88;1053696;28;20091;-50
2021/05/15 00:02:01;;;;;;;3.07;1.23;;;;;;;9.48;97.21;95428.94;1053395;28;20016;-51
2021/05/15 00:02:31;;;;;;;3.40;1.10;;;;;;;9.42;97.36;95428.72;1053369;28;20372;-48
2021/05/15 00:03:02;;;;;;;5.33;1.50;;;;;;;9.44;97.36;95431.13;1053394;28;20016;-52
2021/05/15 00:03:32;;;;;;;5.07;1.37;;;;;;;9.50;97.23;95429.50;1049148;28;20012;-48
2021/05/15 00:04:03;;;;;;;3.27;1.40;;;;;;;9.52;97.07;95433.56;1053034;28;20099;-52
2021/05/15 00:04:33;;;;;;;2.83;1.20;;;;;;;9.54;96.96;95428.09;1052757;28;20094;-50
2021/05/15 00:05:06;;;;;;;2.53;1.17;;;;;;;9.51;96.84;95421.44;1052997;28;20018;-49
2021/05/15 00:05:36;;;;;;;2.80;1.15;;;;;;;9.48;97.50;95419.22;1053421;28;20483;-49
2021/05/15 00:06:07;;;;;;;4.37;1.40;;;;;;;9.49;97.72;95420.84;1053478;28;20016;-48
2021/05/15 00:06:37;;;;;;;3.63;1.30;;;;;;;9.50;97.90;95427.69;1053595;28;20012;-49
2021/05/15 00:07:08;;;;;;;3.93;1.20;;;;;;;9.55;96.88;95421.81;1053490;28;20521;-49
2021/05/15 00:07:38;;;;;;;3.83;1.23;;;;;;;9.56;96.82;95420.81;1057370;28;20106;-49
2021/05/15 00:08:09;;;;;;;4.13;1.50;;;;;;;9.56;97.15;95429.50;1057247;28;20069;-50
2021/05/15 00:08:39;;;;;;;3.53;1.27;;;;;;;9.56;97.11;95424.22;1053026;28;20020;-52
2021/05/15 00:09:10;;;;;;;3.33;1.30;;;;;;;9.58;96.98;95414.34;1053087;28;20059;-50
2021/05/15 00:09:40;;;;;;;5.17;1.60;;;;;;;9.59;96.81;95423.03;1048898;28;20017;-49
2021/05/15 00:10:11;;;;;;;4.00;1.20;;;;;;;9.57;96.71;95417.97;1048927;28;20023;-49
2021/05/15 00:10:42;;;;;;;4.70;1.50;;;;;;;9.49;97.59;95420.84;1053206;28;20107;-48
2021/05/15 00:11:12;;;;;;;4.63;1.40;;;;;;;9.52;96.91;95417.78;1052933;28;20355;-48
2021/05/15 00:11:43;;;;;;;4.00;1.70;;;;;;;9.56;97.18;95424.22;1052764;28;20055;-49
2021/05/15 00:12:13;;;;;;;3.03;1.20;;;;;;;9.57;96.36;95419.81;1052877;28;20086;-49
2021/05/15 00:12:44;;;;;;;6.30;1.43;;;;;;;9.55;96.87;95427.06;1052917;28;20103;-49
2021/05/15 00:13:15;;;;;;;3.93;1.20;;;;;;;9.56;96.73;95423.44;1053268;28;20474;-50
2021/05/15 00:13:46;;;;;;;3.97;1.38;;;;;;;9.57;96.75;95423.22;1052783;28;20095;-47
2021/05/15 00:14:16;;;;;;;3.97;1.40;;;;;;;9.43;97.13;95424.28;1048723;28;20372;-48
2021/05/15 00:14:47;;;;;;;4.27;1.50;;;;;;;9.49;97.71;95426.09;1044707;28;20104;-49
2021/05/15 00:15:17;;;;;;;5.20;1.23;;;;;;;9.51;97.01;95421.44;1044646;28;20125;-49
2021/05/15 00:15:48;;;;;;;3.53;1.30;;;;;;;9.51;97.36;95420.63;1041096;28;20362;-49
2021/05/15 00:16:19;;;;;;;4.97;1.80;;;;;;;9.50;97.31;95425.06;1044550;28;20060;-49
2021/05/15 00:16:50;;;;;;;3.67;1.50;;;;;;;9.51;97.05;95420.63;1044773;28;20017;-49
2021/05/15 00:17:20;;;;;;;4.03;1.60;;;;;;;9.49;96.99;95420.84;1045001;28;20365;-48
2021/05/15 00:17:51;;;;;;;3.63;1.40;;;;;;;9.51;97.15;95423.25;1049228;28;20040;-49
2021/05/15 00:18:21;;;;;;;3.70;1.60;;;;;;;9.51;97.40;95416.16;1048827;28;20024;-49
2021/05/15 00:18:52;;;;;;;3.53;1.50;;;;;;;9.49;97.77;95423.47;1049036;28;20009;-48
2021/05/15 00:19:22;;;;;;;4.80;1.47;;;;;;;9.49;98.13;95420.00;1049151;28;20008;-49
2021/05/15 00:19:53;;;;;;;5.63;1.73;;;;;;;9.50;97.69;95417.16;1048936;28;20008;-50
2021/05/15 00:20:23;;;;;;;3.57;1.50;;;;;;;9.46;98.73;95423.88;1049657;28;20012;-49
2021/05/15 00:20:54;;;;;;;3.93;1.50;;;;;;;9.41;98.31;95426.28;1049129;28;20023;-48
2021/05/15 00:21:24;;;;;;;4.13;1.27;;;;;;;9.44;98.16;95420.63;1049131;28;20016;-52
2021/05/15 00:21:55;;;;;;;3.27;1.47;;;;;;;9.44;98.17;95420.63;1049116;28;20020;-48
2021/05/15 00:22:25;;;;;;;4.77;1.50;;;;;;;9.39;98.38;95420.44;1049046;28;20414;-49
2021/05/15 00:22:56;;;;;;;3.83;1.47;;;;;;;9.41;98.61;95424.50;1049203;28;20364;-49
2021/05/15 00:23:26;;;;;;;4.27;1.30;;;;;;;9.41;98.23;95411.34;1049270;28;20019;-49
2021/05/15 00:23:57;;;;;;;3.43;1.50;;;;;;;9.43;97.69;95419.81;1049217;28;20342;-49
2021/05/15 00:24:27;;;;;;;4.00;1.20;;;;;;;9.42;97.96;95410.31;1044546;28;20051;-51
2021/05/15 00:24:58;;;;;;;3.40;1.53;;;;;;;9.42;97.23;95420.03;1044770;28;20017;-50
2021/05/15 00:25:28;;;;;;;3.27;1.43;;;;;;;9.39;97.62;95409.94;1044856;28;20013;-48
2021/05/15 00:25:59;;;;;;;3.93;1.37;;;;;;;9.38;98.86;95417.03;1044979;28;20481;-52
2021/05/15 00:26:30;;;;;;;3.60;1.58;;;;;;;9.39;98.33;95420.44;1048780;28;20013;-49
2021/05/15 00:27:00;;;;;;;5.77;1.63;;;;;;;9.39;98.22;95417.81;1048798;28;20055;-49
2021/05/15 00:27:31;;;;;;;6.90;1.70;;;;;;;9.38;98.59;95416.19;1049019;28;20103;-49
2021/05/15 00:28:01;;;;;;;3.13;1.40;;;;;;;9.37;97.92;95417.22;1049261;28;20423;-50
2021/05/15 00:28:32;;;;;;;4.97;1.43;;;;;;;9.34;98.52;95420.25;1049204;28;20024;-48
2021/05/15 00:29:03;;;;;;;4.30;1.50;;;;;;;9.32;98.66;95417.00;1049487;28;20161;-49
2021/05/15 00:29:33;;;;;;;3.97;1.47;;;;;;;9.31;98.79;95413.59;1053356;28;20012;-49
2021/05/15 00:30:08;;;;;;;4.93;1.70;;;;;;;9.31;99.10;95416.22;1053234;28;20120;-49
2021/05/15 00:30:38;;;;;;;4.13;1.45;;;;;;;9.30;98.99;95416.41;1053694;28;20476;-52
2021/05/15 00:31:09;;;;;;;5.40;1.60;;;;;;;9.28;99.55;95413.16;1057338;28;20103;-49
2021/05/15 00:31:39;;;;;;;3.33;1.40;;;;;;;9.27;99.58;95408.94;1057535;28;20101;-50
2021/05/15 00:32:09;;;;;;;3.60;1.47;;;;;;;9.30;99.75;95416.41;1052846;28;20023;-49
2021/05/15 00:32:40;;;;;;;4.90;1.30;;;;;;;9.24;100.00;95405.69;1044544;28;20066;-50
2021/05/15 00:33:11;;;;;;;4.17;1.50;;;;;;;9.28;100.00;95416.63;1040379;28;20029;-48
2021/05/15 00:33:41;;;;;;;6.23;1.40;;;;;;;9.31;99.72;95416.22;1036605;28;20029;-50
2021/05/15 00:34:12;;;;;;;4.03;1.40;;;;;;;9.32;98.88;95415.22;1044612;28;20161;-49
2021/05/15 00:34:42;;;;;;;5.97;1.90;;;;;;;9.36;98.42;95418.22;1048977;28;20064;-49
2021/05/15 00:35:13;;;;;;;4.50;1.60;;;;;;;9.37;98.75;95419.84;1053014;28;20114;-49
2021/05/15 00:35:43;;;;;;;5.63;1.47;;;;;;;9.35;98.43;95416.59;1053334;28;20073;-49
2021/05/15 00:36:14;;;;;;;3.55;1.50;;;;;;;9.37;98.95;95419.84;1053451;28;20028;-48
2021/05/15 00:36:44;;;;;;;3.77;1.43;;;;;;;9.26;99.64;95418.63;1053271;28;20376;-50
2021/05/15 00:37:15;;;;;;;4.20;1.60;;;;;;;9.19;100.00;95418.66;1053359;28;20019;-50
2021/05/15 00:37:45;;;;;;;4.30;1.83;;;;;;;9.15;100.00;95422.69;1053277;28;20094;-48
2021/05/15 00:38:16;;;;;;;2.80;1.50;;;;;;;9.21;100.00;95418.44;1053460;28;20024;-49
2021/05/15 00:38:46;;;;;;;3.13;1.50;;;;;;;9.21;100.00;95415.81;1053282;28;20372;-49
2021/05/15 00:39:19;;;;;;;4.00;1.60;;;;;;;9.25;99.19;95414.41;1053108;28;20095;-49
2021/05/15 00:39:49;;;;;;;4.32;1.58;;;;;;;9.27;99.94;95415.00;1053003;28;20016;-50
2021/05/15 00:40:20;;;;;;;4.47;1.60;;;;;;;9.29;99.86;95412.16;1052968;28;20016;-53
2021/05/15 00:40:51;;;;;;;4.20;1.50;;;;;;;9.29;99.60;95412.97;1052998;28;20046;-51
2021/05/15 00:41:21;;;;;;;2.83;1.20;;;;;;;9.29;98.46;95409.53;1053238;28;20065;-51
2021/05/15 00:41:51;;;;;;;3.10;1.40;;;;;;;9.29;98.30;95417.41;1053143;28;20031;-50
2021/05/15 00:42:22;;;;;;;2.93;1.43;;;;;;;9.28;98.46;95413.16;1053242;28;20091;-50
2021/05/15 00:42:53;;;;;;;5.37;1.70;;;;;;;9.22;98.33;95407.72;1053204;28;20012;-48
2021/05/15 00:43:26;;;;;;;4.13;1.40;;;;;;;9.21;98.78;95411.34;1053018;28;20073;-49
2021/05/15 00:44:31;;;;;;;3.20;1.40;;;;;;;9.22;99.48;95412.19;1052832;28;20027;-52
2021/05/15 00:44:47;;;;;;;4.95;1.60;;;;;;;9.10;100.00;95405.94;1048486;28;20388;-50
2021/05/15 00:45:18;;;;;;;3.50;1.40;;;;;;;9.13;100.00;95411.59;1048692;28;20008;-50
2021/05/15 00:45:48;;;;;;;3.50;1.40;;;;;;;9.08;100.00;95408.75;1051684;28;20020;-50
2021/05/15 00:46:19;;;;;;;3.80;1.47;;;;;;;9.09;100.00;95413.00;1052997;28;20024;-49
2021/05/15 00:46:49;;;;;;;3.90;1.47;;;;;;;9.15;99.67;95409.53;1053306;28;20093;-49
2021/05/15 00:47:21;;;;;;;4.60;1.50;;;;;;;9.20;99.48;95404.50;1053420;28;20004;-53
2021/05/15 00:47:51;;;;;;;5.25;1.48;;;;;;;9.21;99.38;95408.72;1053214;28;20012;-49
2021/05/15 00:48:22;;;;;;;3.80;1.60;;;;;;;9.21;98.58;95405.31;1053093;28;20349;-49
2021/05/15 00:48:52;;;;;;;5.30;1.57;;;;;;;9.21;98.76;95410.56;1053242;28;20016;-51
2021/05/15 00:49:23;;;;;;;3.93;1.60;;;;;;;9.22;99.16;95405.09;1053360;28;20016;-48
2021/05/15 00:49:53;;;;;;;3.47;1.40;;;;;;;9.22;99.23;95404.31;1057678;28;20011;-51
2021/05/15 00:50:24;;;;;;;4.00;1.63;;;;;;;9.23;98.85;95404.09;1053194;28;20062;-51
2021/05/15 00:50:55;;;;;;;3.83;1.47;;;;;;;9.25;98.86;95407.31;1048906;28;20142;-52
2021/05/15 00:51:25;;;;;;;3.40;1.30;;;;;;;9.27;98.67;95404.50;1048807;28;20009;-50
2021/05/15 00:51:56;;;;;;;4.43;1.70;;;;;;;9.24;98.56;95404.91;1044731;28;20063;-50
2021/05/15 00:52:29;;;;;;;3.85;1.33;;;;;;;9.24;98.39;95400.44;1049101;28;20092;-49
2021/05/15 00:53:00;;;;;;;3.92;1.60;;;;;;;9.20;99.18;95399.25;1048770;28;20099;-49
2021/05/15 00:53:30;;;;;;;4.53;1.57;;;;;;;9.07;99.74;95404.50;1036346;28;20157;-49
2021/05/15 00:54:01;;;;;;;6.10;1.70;;;;;;;9.08;99.47;95403.50;1036847;28;20556;-53
2021/05/15 00:54:31;;;;;;;3.47;1.77;;;;;;;9.11;99.16;95410.16;1036808;28;20017;-50
2021/05/15 00:55:11;;;;;;;3.63;1.50;;;;;;;9.16;98.01;95405.13;1040897;28;20047;-49
2021/05/15 00:55:42;;;;;;;5.10;1.38;;;;;;;9.16;98.21;95397.25;1053081;28;20017;-49
2021/05/15 00:56:13;;;;;;;4.30;1.60;;;;;;;9.14;98.23;95407.94;1052974;28;20637;-53
2021/05/15 00:56:43;;;;;;;3.30;1.50;;;;;;;9.14;98.60;95405.31;1048949;28;20093;-48
2021/05/15 00:57:14;;;;;;;3.80;1.30;;;;;;;9.14;98.34;95404.50;1044937;28;20525;-52
2021/05/15 00:57:44;;;;;;;4.97;1.47;;;;;;;9.08;98.76;95400.88;1044757;28;20028;-51
2021/05/15 00:58:14;;;;;;;2.93;1.40;;;;;;;9.10;98.67;95406.72;1044572;28;20426;-52
2021/05/15 00:58:45;;;;;;;3.33;1.50;;;;;;;9.06;98.47;95416.03;1053436;28;20058;-51
2021/05/15 00:59:15;;;;;;;5.30;1.53;;;;;;;9.12;98.33;95412.59;1053252;28;20466;-52
2021/05/15 00:59:46;;;;;;;4.77;1.57;;;;;;;9.15;98.21;95414.78;1048772;28;20807;-49
2021/05/15 01:00:17;;;;;;;3.33;1.30;;;;;;;9.13;98.32;95408.94;1053061;28;20048;-52
2021/05/15 01:00:47;;;;;;;4.75;1.40;;;;;;;9.18;97.37;95405.72;1053055;28;20028;-52
2021/05/15 01:01:18;;;;;;;3.27;1.37;;;;;;;9.22;97.41;95409.56;1052939;28;20020;-50
2021/05/15 01:01:48;;;;;;;4.20;1.53;;;;;;;9.17;97.02;95407.53;1052871;28;20020;-50
2021/05/15 01:02:19;;;;;;;3.13;1.23;;;;;;;9.19;97.47;95409.97;1052881;28;20023;-51
2021/05/15 01:02:49;;;;;;;2.97;1.30;;;;;;;9.22;97.34;95402.47;1048643;28;20024;-50
2021/05/15 01:03:20;;;;;;;4.17;1.33;;;;;;;9.22;96.49;95405.09;1048707;28;20425;-50
2021/05/15 01:03:50;;;;;;;3.17;1.10;;;;;;;9.22;96.90;95412.97;1053077;28;20393;-51
2021/05/15 01:04:21;;;;;;;3.57;1.23;;;;;;;9.20;96.53;95408.94;1052617;28;20145;-49
2021/05/15 01:04:51;;;;;;;4.43;1.63;;;;;;;9.19;97.24;95410.75;1053092;28;20099;-50
2021/05/15 01:05:22;;;;;;;3.77;1.40;;;;;;;9.23;97.01;95408.53;1053141;28;20027;-50
2021/05/15 01:05:52;;;;;;;6.83;1.40;;;;;;;9.22;96.50;95409.56;1053248;28;20357;-52
2021/05/15 01:06:23;;;;;;;3.93;1.30;;;;;;;9.21;96.35;95408.72;1052990;28;20027;-49
2021/05/15 01:06:54;;;;;;;6.03;1.37;;;;;;;9.24;96.86;95410.94;1053317;28;20027;-50
2021/05/15 01:07:24;;;;;;;2.50;1.30;;;;;;;9.25;96.39;95409.94;1053200;28;20031;-50
2021/05/15 01:07:55;;;;;;;3.77;1.30;;;;;;;9.25;96.96;95412.56;1053091;28;20285;-51
2021/05/15 01:08:27;;;;;;;3.33;1.40;;;;;;;9.28;96.61;95410.53;1053147;28;20019;-53
2021/05/15 01:08:58;;;;;;;4.80;1.50;;;;;;;9.26;96.99;95413.38;1052913;28;20028;-51
2021/05/15 01:09:28;;;;;;;5.80;1.37;;;;;;;9.26;95.64;95418.63;1057015;28;20023;-49
2021/05/15 01:09:59;;;;;;;3.67;1.40;;;;;;;9.28;96.10;95410.53;1057018;28;20016;-50
2021/05/15 01:10:29;;;;;;;2.93;1.30;;;;;;;9.30;95.14;95413.78;1057121;28;20016;-49
2021/05/15 01:11:00;;;;;;;2.73;1.30;;;;;;;9.30;94.91;95414.59;1056902;28;20015;-50
2021/05/15 01:11:30;;;;;;;4.17;1.30;;;;;;;9.28;94.50;95413.16;1053105;28;20399;-51
2021/05/15 01:12:08;;;;;;;2.60;1.20;;;;;;;9.28;95.17;95414.00;1053298;28;20066;-49
2021/05/15 01:12:51;;;;;;;3.95;1.52;;;;;;;9.20;95.76;95411.56;1053223;28;20016;-49
2021/05/15 01:13:23;;;;;;;5.50;1.40;;;;;;;9.13;95.55;95422.09;1053319;28;20074;-50
2021/05/15 01:13:57;;;;;;;7.35;1.40;;;;;;;9.19;95.52;95413.38;1048553;28;20397;-49
2021/05/15 01:14:27;;;;;;;3.03;1.17;;;;;;;9.25;94.84;95409.94;1048441;28;20020;-53
2021/05/15 01:14:58;;;;;;;4.27;1.40;;;;;;;9.27;95.43;95416.81;1048714;28;20505;-50
2021/05/15 01:15:28;;;;;;;4.80;1.10;;;;;;;9.26;94.88;95408.13;1049396;28;20024;-49
2021/05/15 01:15:59;;;;;;;3.27;1.40;;;;;;;9.27;94.55;95404.50;1053168;28;20365;-53
2021/05/15 01:16:33;;;;;;;2.63;1.30;;;;;;;9.25;94.99;95414.41;1053393;28;20020;-51
2021/05/15 01:17:06;;;;;;;3.22;1.30;;;;;;;9.26;94.94;95408.13;1053044;28;20028;-49
2021/05/15 01:17:37;;;;;;;3.03;1.20;;;;;;;9.25;95.35;95409.94;1053001;28;20021;-49
2021/05/15 01:18:07;;;;;;;3.47;1.27;;;;;;;9.27;95.00;95408.94;1053403;28;20369;-50
2021/05/15 01:18:38;;;;;;;2.97;1.30;;;;;;;9.26;94.63;95405.50;1053261;28;20097;-51
2021/05/15 01:19:08;;;;;;;8.90;1.53;;;;;;;9.25;95.39;95409.94;1053289;28;20360;-50
2021/05/15 01:19:39;;;;;;;3.77;1.30;;;;;;;9.17;95.97;95409.34;1053373;28;20016;-51
2021/05/15 01:20:10;;;;;;;3.60;1.30;;;;;;;9.23;96.02;95409.34;1052968;28;20048;-48
2021/05/15 01:20:40;;;;;;;3.90;1.13;;;;;;;9.29;95.64;95407.72;1057037;28;20452;-52
2021/05/15 01:21:11;;;;;;;3.63;1.20;;;;;;;9.32;94.40;95417.84;1056830;28;20257;-48
2021/05/15 01:21:42;;;;;;;3.07;1.33;;;;;;;9.32;94.62;95411.75;1057298;28;20030;-52
2021/05/15 01:22:13;;;;;;;3.27;1.50;;;;;;;9.29;93.74;95412.16;1052730;28;20103;-55
2021/05/15 01:22:44;;;;;;;4.00;1.30;;;;;;;9.31;94.62;95413.59;1052740;28;20091;-50
2021/05/15 01:23:14;;;;;;;3.30;1.17;;;;;;;9.31;94.29;95410.97;1048725;28;20009;-52
2021/05/15 01:23:44;;;;;;;4.03;1.40;;;;;;;9.33;93.85;95416.00;1048729;28;20058;-50
2021/05/15 01:24:15;;;;;;;4.77;1.20;;;;;;;9.29;94.18;95406.91;1052458;28;20008;-49
2021/05/15 01:24:46;;;;;;;3.73;1.40;;;;;;;9.30;94.60;95406.72;1052798;28;20066;-51
2021/05/15 01:25:17;;;;;;;2.97;1.20;;;;;;;9.27;94.02;95408.94;1053197;28;20073;-48
2021/05/15 01:25:48;;;;;;;3.00;1.30;;;;;;;9.29;93.98;95409.53;1053163;28;20012;-49
2021/05/15 01:26:26;;;;;;;2.55;1.20;;;;;;;9.27;93.85;95411.56;1053053;28;20020;-49
2021/05/15 01:26:56;;;;;;;2.85;1.20;;;;;;;9.30;94.10;95411.16;1053307;28;20008;-51
2021/05/15 01:27:27;;;;;;;3.20;1.30;;;;;;;9.32;94.00;95409.13;1053038;28;20031;-51
2021/05/15 01:27:57;;;;;;;3.53;1.30;;;;;;;9.31;94.30;95410.97;1053146;28;20024;-50
2021/05/15 01:28:29;;;;;;;3.23;1.20;;;;;;;9.34;93.55;95407.13;1053186;28;20043;-49
2021/05/15 01:29:04;;;;;;;2.40;1.20;;;;;;;9.33;94.02;95408.13;1053101;28;20020;-51
2021/05/15 01:29:34;;;;;;;3.40;1.20;;;;;;;9.28;94.39;95411.38;1052985;28;20495;-49
2021/05/15 01:30:07;;;;;;;4.20;1.20;;;;;;;9.25;94.46;95409.94;1053163;28;20027;-52
2021/05/15 01:30:37;;;;;;;4.93;1.40;;;;;;;9.30;93.88;95416.41;1053307;28;20024;-52
2021/05/15 01:31:08;;;;;;;1.80;1.00;;;;;;;9.27;93.44;95406.31;1052790;28;20023;-49
2021/05/15 01:31:38;;;;;;;3.83;1.00;;;;;;;9.26;93.27;95416.00;1052847;28;20404;-49
2021/05/15 01:32:09;;;;;;;2.40;1.00;;;;;;;9.23;94.48;95406.72;1052994;28;20083;-49
2021/05/15 01:32:42;;;;;;;4.03;1.27;;;;;;;9.21;94.67;95408.72;1052930;28;20050;-50
2021/05/15 01:33:13;;;;;;;3.15;1.10;;;;;;;9.24;94.28;95405.69;1053421;28;20031;-53
2021/05/15 01:33:43;;;;;;;3.13;1.20;;;;;;;9.23;94.68;95403.28;1053150;28;20039;-50
2021/05/15 01:34:14;;;;;;;3.93;1.20;;;;;;;9.25;94.81;95411.78;1052893;28;20028;-52
2021/05/15 01:34:44;;;;;;;4.13;1.20;;;;;;;9.22;94.82;95405.09;1053397;28;20027;-52
2021/05/15 01:35:16;;;;;;;3.17;1.30;;;;;;;9.26;95.02;95410.75;1053457;28;20142;-52
2021/05/15 01:35:46;;;;;;;5.53;1.55;;;;;;;9.25;94.52;95409.16;1053217;28;20101;-49
2021/05/15 01:36:18;;;;;;;3.03;1.20;;;;;;;9.18;95.36;95411.75;1052881;28;20046;-49
2021/05/15 01:36:48;;;;;;;4.07;1.33;;;;;;;9.23;95.79;95409.34;1053286;28;20043;-52
2021/05/15 01:37:19;;;;;;;2.60;0.93;;;;;;;9.29;94.47;95410.34;1053228;28;20023;-50
2021/05/15 01:37:49;;;;;;;5.70;1.10;;;;;;;9.30;93.61;95405.91;1053074;28;20061;-48
2021/05/15 01:38:19;;;;;;;5.63;1.10;;;;;;;9.28;94.29;95408.75;1053004;28;20097;-49
2021/05/15 01:38:50;;;;;;;4.70;1.20;;;;;;;9.30;93.81;95398.03;1047324;28;20462;-50
2021/05/15 01:39:20;;;;;;;4.37;1.00;;;;;;;9.28;93.45;95403.47;1048661;28;20135;-52
2021/05/15 01:39:51;;;;;;;4.00;1.23;;;;;;;9.28;93.15;95402.66;1052060;28;20164;-51
2021/05/15 01:40:21;;;;;;;3.77;1.20;;;;;;;9.17;93.85;95409.34;1052982;28;20043;-50
2021/05/15 01:40:52;;;;;;;2.87;1.20;;;;;;;9.11;94.75;95402.28;1053136;28;20043;-50
2021/05/15 01:41:22;;;;;;;2.90;1.27;;;;;;;9.10;95.03;95411.19;1053004;28;20086;-53
2021/05/15 01:41:53;;;;;;;2.57;1.07;;;;;;;9.19;94.78;95405.50;1052729;28;20020;-51
2021/05/15 01:42:23;;;;;;;2.20;1.00;;;;;;;9.23;94.04;95411.97;1052889;28;20008;-50
2021/05/15 01:42:54;;;;;;;4.03;1.30;;;;;;;9.24;94.17;95405.69;1053222;28;20023;-51
2021/05/15 01:43:25;;;;;;;4.23;1.30;;;;;;;9.24;93.95;95405.69;1056694;28;20072;-50
2021/05/15 01:43:58;;;;;;;2.87;1.07;;;;;;;9.23;94.46;95400.66;1056487;28;20538;-53
2021/05/15 01:44:32;;;;;;;2.38;1.00;;;;;;;9.27;94.32;95403.69;1056437;28;20023;-51
2021/05/15 01:45:04;;;;;;;3.17;1.10;;;;;;;9.25;94.42;95404.69;1055367;28;20073;-49
2021/05/15 01:45:34;;;;;;;4.10;1.25;;;;;;;9.20;94.66;95412.38;1052757;28;20012;-50
2021/05/15 01:46:05;;;;;;;4.17;1.20;;;;;;;9.22;94.57;95404.31;1052797;28;20040;-49
2021/05/15 01:46:35;;;;;;;4.03;1.20;;;;;;;9.28;94.72;95405.28;1047815;28;20023;-48
2021/05/15 01:47:06;;;;;;;3.73;1.10;;;;;;;9.29;95.16;95401.66;1046905;28;20441;-49
2021/05/15 01:47:37;;;;;;;2.93;1.17;;;;;;;9.32;93.54;95404.69;1048692;28;20023;-48
2021/05/15 01:48:17;;;;;;;3.80;1.37;;;;;;;9.34;93.97;95407.13;1051704;28;20022;-51
2021/05/15 01:48:48;;;;;;;3.40;1.20;;;;;;;9.30;93.07;95400.66;1046596;28;20016;-52
2021/05/15 01:49:19;;;;;;;3.60;1.23;;;;;;;9.30;93.22;95400.66;1047183;28;20061;-50
2021/05/15 01:49:49;;;;;;;3.28;1.10;;;;;;;9.31;94.06;95404.91;1049228;28;20031;-50
2021/05/15 01:50:20;;;;;;;5.17;1.30;;;;;;;9.20;94.11;95407.13;1053011;28;20055;-51
2021/05/15 01:51:10;;;;;;;2.70;1.10;;;;;;;9.13;94.96;95400.28;1053261;28;20098;-50
2021/05/15 01:51:41;;;;;;;3.15;1.25;;;;;;;9.18;95.06;95401.25;1052688;28;20016;-53
2021/05/15 01:52:11;;;;;;;3.40;1.13;;;;;;;9.21;94.85;95407.94;1052109;28;20068;-49
2021/05/15 01:52:42;;;;;;;3.07;1.00;;;;;;;9.20;94.73;95398.44;1045661;28;20047;-53
2021/05/15 01:53:12;;;;;;;3.13;1.33;;;;;;;9.16;95.06;95408.53;1046859;28;20012;-54
2021/05/15 01:53:48;;;;;;;2.47;1.10;;;;;;;9.16;95.16;95403.28;1052707;28;20019;-50
2021/05/15 01:54:19;;;;;;;4.18;1.10;;;;;;;9.18;94.61;95406.50;1053001;28;20052;-52
2021/05/15 01:54:49;;;;;;;2.83;1.00;;;;;;;9.19;94.72;95407.34;1047529;28;20020;-52
2021/05/15 01:55:20;;;;;;;3.27;1.20;;;;;;;9.19;94.81;95407.34;1051093;28;20118;-51
2021/05/15 01:55:51;;;;;;;3.10;1.10;;;;;;;9.12;95.37;95404.69;1052574;28;20043;-52
2021/05/15 01:56:26;;;;;;;2.42;1.23;;;;;;;9.16;96.27;95407.75;1052888;28;20026;-50
2021/05/15 01:56:57;;;;;;;3.20;1.10;;;;;;;9.07;96.82;95407.94;1053003;28;20549;-52
2021/05/15 01:57:27;;;;;;;4.77;1.10;;;;;;;9.15;95.79;95412.19;1052885;28;20085;-49
2021/05/15 01:57:57;;;;;;;3.30;1.17;;;;;;;9.18;95.94;95409.13;1053230;28;20103;-50
2021/05/15 01:58:28;;;;;;;2.40;1.00;;;;;;;9.21;94.37;95403.47;1053435;28;20063;-50
2021/05/15 01:58:59;;;;;;;4.97;1.10;;;;;;;9.21;94.10;95400.06;1051251;28;20396;-52
2021/05/15 01:59:29;;;;;;;2.43;1.10;;;;;;;9.24;95.02;95408.31;1049004;28;20020;-49
2021/05/15 01:59:59;;;;;;;2.47;1.10;;;;;;;9.23;94.38;95403.28;1051511;28;20028;-50
2021/05/15 02:00:30;;;;;;;3.53;1.10;;;;;;;9.21;95.03;95400.84;1046702;28;20032;-53
2021/05/15 02:01:00;;;;;;;2.37;1.10;;;;;;;9.13;95.66;95405.53;1051893;28;20069;-49
2021/05/15 02:01:31;;;;;;;2.73;1.10;;;;;;;9.15;96.49;95409.53;1050596;28;20016;-51
2021/05/15 02:02:01;;;;;;;2.33;1.03;;;;;;;9.18;95.16;95403.88;1045680;28;20451;-50
2021/05/15 02:02:32;;;;;;;2.10;1.00;;;;;;;9.15;95.37;95412.19;1052871;28;20075;-52
2021/05/15 02:03:02;;;;;;;2.73;1.10;;;;;;;9.13;94.98;95403.69;1052369;28;20118;-49
2021/05/15 02:03:34;;;;;;;3.90;1.20;;;;;;;9.20;95.59;95409.75;1053471;28;20038;-50
2021/05/15 02:04:04;;;;;;;2.45;1.15;;;;;;;9.23;95.79;95405.91;1053002;28;20036;-49
2021/05/15 02:04:35;;;;;;;3.13;1.20;;;;;;;9.10;96.70;95412.00;1055801;28;20098;-51
2021/05/15 02:05:05;;;;;;;2.60;1.10;;;;;;;9.07;97.31;95409.75;1051354;28;20028;-53
2021/05/15 02:05:36;;;;;;;5.13;1.30;;;;;;;9.13;96.97;95402.91;1053013;27;20505;-51
2021/05/15 02:06:06;;;;;;;3.67;1.20;;;;;;;9.10;95.78;95403.31;1050020;28;20028;-54
2021/05/15 02:06:37;;;;;;;2.70;1.10;;;;;;;9.04;95.91;95408.34;1052764;28;20046;-49
2021/05/15 02:07:08;;;;;;;2.93;1.20;;;;;;;9.10;95.95;95416.44;1048611;28;20035;-50
2021/05/15 02:07:38;;;;;;;2.60;1.20;;;;;;;9.10;97.06;95412.00;1044466;28;20025;-52
2021/05/15 02:08:10;;;;;;;2.60;1.20;;;;;;;9.15;96.98;95411.38;1048635;28;20031;-51
2021/05/15 02:08:42;;;;;;;1.90;0.90;;;;;;;9.16;95.69;95410.38;1048231;28;20369;-50
2021/05/15 02:09:12;;;;;;;4.75;1.13;;;;;;;9.14;94.98;95409.75;1052796;28;20031;-52
2021/05/15 02:09:42;;;;;;;3.80;1.33;;;;;;;9.10;95.60;95412.00;1052952;28;20028;-49
2021/05/15 02:10:13;;;;;;;3.77;1.30;;;;;;;9.13;95.45;95416.03;1052625;28;20062;-51
2021/05/15 02:10:44;;;;;;;3.20;1.10;;;;;;;9.11;95.79;95412.78;1052718;28;20028;-52
2021/05/15 02:11:16;;;;;;;2.63;1.10;;;;;;;9.08;96.41;95411.38;1052263;28;20063;-53
2021/05/15 02:11:46;;;;;;;2.83;1.10;;;;;;;9.13;95.63;95408.16;1052364;28;20110;-53
2021/05/15 02:12:17;;;;;;;3.03;1.17;;;;;;;9.12;96.35;95414.41;1048118;28;20048;-51
2021/05/15 02:12:47;;;;;;;1.90;0.97;;;;;;;9.11;96.34;95404.91;1045042;28;20024;-52
2021/05/15 02:13:18;;;;;;;3.30;1.10;;;;;;;9.14;96.63;95407.94;1040191;28;20493;-48
2021/05/15 02:13:49;;;;;;;2.33;1.10;;;;;;;9.16;95.87;95408.53;1039942;28;20194;-49
2021/05/15 02:14:19;;;;;;;3.40;1.10;;;;;;;9.12;95.98;95411.78;1044095;28;20025;-52
2021/05/15 02:14:50;;;;;;;3.10;1.10;;;;;;;9.16;96.67;95405.91;1048152;28;20087;-50
2021/05/15 02:15:20;;;;;;;5.50;1.40;;;;;;;9.11;95.76;95405.72;1053017;28;20484;-49
2021/05/15 02:15:51;;;;;;;2.53;1.20;;;;;;;9.07;95.81;95401.88;1053273;28;20447;-50
2021/05/15 02:16:21;;;;;;;2.07;1.07;;;;;;;9.12;95.96;95415.22;1053045;28;20066;-49
2021/05/15 02:16:52;;;;;;;2.20;1.00;;;;;;;9.04;96.08;95408.34;1053357;28;20023;-51
2021/05/15 02:17:22;;;;;;;3.80;1.00;;;;;;;9.09;96.09;95410.34;1053005;28;20031;-50
2021/05/15 02:17:53;;;;;;;1.63;0.90;;;;;;;9.10;96.53;95409.34;1053025;28;20024;-49
2021/05/15 02:18:23;;;;;;;3.20;1.27;;;;;;;8.95;96.30;95400.88;1052788;28;20027;-50
2021/05/15 02:18:54;;;;;;;5.10;1.50;;;;;;;9.06;97.22;95403.72;1048368;28;20107;-49
2021/05/15 02:19:24;;;;;;;2.23;0.97;;;;;;;9.08;96.25;95408.75;1052771;28;20315;-49
2021/05/15 02:19:55;;;;;;;3.83;1.13;;;;;;;9.12;95.70;95402.06;1052755;28;20069;-48
2021/05/15 02:20:25;;;;;;;3.30;1.20;;;;;;;9.09;96.54;95399.06;1053056;28;20021;-48
2021/05/15 02:20:56;;;;;;;3.90;1.20;;;;;;;9.07;97.08;95412.38;1053372;28;20023;-49
2021/05/15 02:21:26;;;;;;;3.83;1.10;;;;;;;9.01;96.00;95406.13;1053211;28;20024;-50
2021/05/15 02:21:57;;;;;;;3.73;1.20;;;;;;;8.92;97.41;95409.97;1053137;28;20467;-51
2021/05/15 02:22:27;;;;;;;2.00;1.00;;;;;;;8.98;96.84;95403.09;1053171;28;20024;-49
2021/05/15 02:22:58;;;;;;;5.03;1.30;;;;;;;9.05;96.61;95406.53;1053391;28;20052;-49
2021/05/15 02:23:28;;;;;;;2.97;1.10;;;;;;;9.09;95.85;95402.47;1053271;28;20068;-48
2021/05/15 02:23:59;;;;;;;3.90;1.10;;;;;;;9.12;95.87;95406.53;1053228;28;20019;-48
2021/05/15 02:24:29;;;;;;;2.77;1.17;;;;;;;9.12;96.26;95407.31;1052805;28;20012;-48
2021/05/15 02:24:59;;;;;;;2.33;1.20;;;;;;;9.11;96.55;95407.53;1052983;28;20409;-51
2021/05/15 02:25:30;;;;;;;4.83;1.20;;;;;;;9.13;96.05;95402.91;1053159;28;20020;-49
2021/05/15 02:26:00;;;;;;;4.30;1.30;;;;;;;9.11;97.38;95405.72;1053037;28;20012;-48
2021/05/15 02:26:31;;;;;;;5.07;1.00;;;;;;;9.16;96.08;95405.13;1052566;28;20013;-48
2021/05/15 02:27:01;;;;;;;2.70;1.10;;;;;;;9.15;94.86;95406.13;1048383;28;20472;-51
2021/05/15 02:27:32;;;;;;;2.63;1.00;;;;;;;9.14;94.69;95404.50;1048314;28;20043;-49
2021/05/15 02:28:03;;;;;;;2.97;1.10;;;;;;;9.16;95.05;95410.38;1044250;28;20064;-47